sensor_id;sensor_type;location;lat;lon;timestamp;temperature;humidity
16384;DHT22;8301;51.440;6.610;2023-11-21T00:02:22;6.60;99.90
16384;DHT22;8301;51.440;6.610;2023-11-21T00:04:49;6.60;99.90
16384;DHT22;8301;51.440;6.610;2023-11-21T00:07:16;6.70;99.90
16384;DHT22;8301;51.440;6.610;2023-11-21T00:09:43;6.70;99.90
16384;DHT22;8301;51.440;6.610;2023-11-21T00:12:15;6.70;99.90
16384;DHT22;8301;51.440;6.610;2023-11-21T00:14:39;6.80;99.90
16384;DHT22;8301;51.440;6.610;2023-11-21T00:17:06;7.00;99.90
16384;DHT22;8301;51.440;6.610;2023-11-21T00:19:33;7.00;99.90
16384;DHT22;8301;51.440;6.610;2023-11-21T00:22:00;7.00;99.90
16384;DHT22;8301;51.440;6.610;2023-11-21T00:24:27;7.00;99.90
16384;DHT22;8301;51.440;6.610;2023-11-21T00:26:54;7.00;99.90
16384;DHT22;8301;51.440;6.610;2023-11-21T00:29:21;7.00;99.90
16384;DHT22;8301;51.440;6.610;2023-11-21T00:31:47;7.00;99.90
16384;DHT22;8301;51.440;6.610;2023-11-21T00:34:14;7.00;99.90
16384;DHT22;8301;51.440;6.610;2023-11-21T00:36:43;7.00;99.90
16384;DHT22;8301;51.440;6.610;2023-11-21T00:39:09;7.00;99.90
16384;DHT22;8301;51.440;6.610;2023-11-21T00:41:38;7.00;99.90
16384;DHT22;8301;51.440;6.610;2023-11-21T00:44:05;7.00;99.90
16384;DHT22;8301;51.440;6.610;2023-11-21T00:46:32;7.00;99.90
16384;DHT22;8301;51.440;6.610;2023-11-21T00:49:06;7.00;99.90
16384;DHT22;8301;51.440;6.610;2023-11-21T00:51:32;7.10;99.90
16384;DHT22;8301;51.440;6.610;2023-11-21T00:53:59;7.00;99.90
16384;DHT22;8301;51.440;6.610;2023-11-21T00:56:27;7.10;99.90
16384;DHT22;8301;51.440;6.610;2023-11-21T00:58:54;7.10;99.90
16384;DHT22;8301;51.440;6.610;2023-11-21T01:01:21;7.10;99.90
16384;DHT22;8301;51.440;6.610;2023-11-21T01:03:48;7.10;99.90
16384;DHT22;8301;51.440;6.610;2023-11-21T01:06:15;7.10;99.90
16384;DHT22;8301;51.440;6.610;2023-11-21T01:08:45;7.10;99.90
16384;DHT22;8301;51.440;6.610;2023-11-21T01:11:12;7.10;99.90
16384;DHT22;8301;51.440;6.610;2023-11-21T01:13:39;7.10;99.90
16384;DHT22;8301;51.440;6.610;2023-11-21T01:16:06;7.10;99.90
16384;DHT22;8301;51.440;6.610;2023-11-21T01:18:34;7.10;99.90
16384;DHT22;8301;51.440;6.610;2023-11-21T01:21:01;7.20;99.90
16384;DHT22;8301;51.440;6.610;2023-11-21T01:23:28;7.10;99.90
16384;DHT22;8301;51.440;6.610;2023-11-21T01:25:56;7.20;99.90
16384;DHT22;8301;51.440;6.610;2023-11-21T01:28:23;7.20;99.90
16384;DHT22;8301;51.440;6.610;2023-11-21T01:30:50;7.20;99.90
16384;DHT22;8301;51.440;6.610;2023-11-21T01:33:17;7.20;99.90
16384;DHT22;8301;51.440;6.610;2023-11-21T01:35:44;7.20;99.90
16384;DHT22;8301;51.440;6.610;2023-11-21T01:38:12;7.10;99.90
16384;DHT22;8301;51.440;6.610;2023-11-21T01:40:40;7.20;99.90
16384;DHT22;8301;51.440;6.610;2023-11-21T01:43:06;7.20;99.90
16384;DHT22;8301;51.440;6.610;2023-11-21T01:45:34;7.20;99.90
16384;DHT22;8301;51.440;6.610;2023-11-21T01:48:04;7.20;99.90
16384;DHT22;8301;51.440;6.610;2023-11-21T01:50:29;7.20;99.90
16384;DHT22;8301;51.440;6.610;2023-11-21T01:52:56;7.20;99.90
16384;DHT22;8301;51.440;6.610;2023-11-21T01:55:23;7.20;99.90
16384;DHT22;8301;51.440;6.610;2023-11-21T01:57:51;7.30;99.90
16384;DHT22;8301;51.440;6.610;2023-11-21T02:00:18;7.20;99.90
16384;DHT22;8301;51.440;6.610;2023-11-21T02:02:45;7.30;99.90
16384;DHT22;8301;51.440;6.610;2023-11-21T02:05:16;7.30;99.90
16384;DHT22;8301;51.440;6.610;2023-11-21T02:07:44;7.30;99.90
16384;DHT22;8301;51.440;6.610;2023-11-21T02:10:16;7.30;99.90
16384;DHT22;8301;51.440;6.610;2023-11-21T02:12:44;7.30;99.90
16384;DHT22;8301;51.440;6.610;2023-11-21T02:15:14;7.30;99.90
16384;DHT22;8301;51.440;6.610;2023-11-21T02:17:41;7.30;99.90
16384;DHT22;8301;51.440;6.610;2023-11-21T02:20:13;7.40;99.90
16384;DHT22;8301;51.440;6.610;2023-11-21T02:22:41;7.40;99.90
16384;DHT22;8301;51.440;6.610;2023-11-21T02:25:08;7.40;99.90
16384;DHT22;8301;51.440;6.610;2023-11-21T02:27:35;7.40;99.90
16384;DHT22;8301;51.440;6.610;2023-11-21T02:30:02;7.40;99.90
16384;DHT22;8301;51.440;6.610;2023-11-21T02:32:30;7.40;99.90
16384;DHT22;8301;51.440;6.610;2023-11-21T02:34:57;7.50;99.90
16384;DHT22;8301;51.440;6.610;2023-11-21T02:37:26;7.50;99.90
16384;DHT22;8301;51.440;6.610;2023-11-21T02:39:53;7.50;99.90
16384;DHT22;8301;51.440;6.610;2023-11-21T02:42:20;7.50;99.90
16384;DHT22;8301;51.440;6.610;2023-11-21T02:44:47;7.50;99.90
16384;DHT22;8301;51.440;6.610;2023-11-21T02:47:16;7.50;99.90
16384;DHT22;8301;51.440;6.610;2023-11-21T02:49:43;7.50;99.90
16384;DHT22;8301;51.440;6.610;2023-11-21T02:52:10;7.50;99.90
16384;DHT22;8301;51.440;6.610;2023-11-21T02:54:37;7.50;99.90
16384;DHT22;8301;51.440;6.610;2023-11-21T02:57:04;7.50;99.90
16384;DHT22;8301;51.440;6.610;2023-11-21T02:59:31;7.50;99.90
16384;DHT22;8301;51.440;6.610;2023-11-21T03:01:58;7.60;99.90
16384;DHT22;8301;51.440;6.610;2023-11-21T03:04:25;7.50;99.90
16384;DHT22;8301;51.440;6.610;2023-11-21T03:06:52;7.60;99.90
16384;DHT22;8301;51.440;6.610;2023-11-21T03:09:19;7.60;99.90
16384;DHT22;8301;51.440;6.610;2023-11-21T03:11:47;7.60;99.90
16384;DHT22;8301;51.440;6.610;2023-11-21T03:14:13;7.60;99.90
16384;DHT22;8301;51.440;6.610;2023-11-21T03:16:40;7.60;99.90
16384;DHT22;8301;51.440;6.610;2023-11-21T03:19:07;7.60;99.90
16384;DHT22;8301;51.440;6.610;2023-11-21T03:21:34;7.60;99.90
16384;DHT22;8301;51.440;6.610;2023-11-21T03:24:01;7.60;99.90
16384;DHT22;8301;51.440;6.610;2023-11-21T03:26:27;7.60;99.90
16384;DHT22;8301;51.440;6.610;2023-11-21T03:28:55;7.60;99.90
16384;DHT22;8301;51.440;6.610;2023-11-21T03:31:22;7.60;99.90
16384;DHT22;8301;51.440;6.610;2023-11-21T03:33:49;7.60;99.90
16384;DHT22;8301;51.440;6.610;2023-11-21T03:36:16;7.60;99.90
16384;DHT22;8301;51.440;6.610;2023-11-21T03:38:43;7.60;99.90
16384;DHT22;8301;51.440;6.610;2023-11-21T03:41:10;7.60;99.90
16384;DHT22;8301;51.440;6.610;2023-11-21T03:43:37;7.60;99.90
16384;DHT22;8301;51.440;6.610;2023-11-21T03:46:04;7.60;99.90
16384;DHT22;8301;51.440;6.610;2023-11-21T03:48:31;7.60;99.90
16384;DHT22;8301;51.440;6.610;2023-11-21T03:50:59;7.60;99.90
16384;DHT22;8301;51.440;6.610;2023-11-21T03:53:25;7.60;99.90
16384;DHT22;8301;51.440;6.610;2023-11-21T03:55:52;7.50;99.90
16384;DHT22;8301;51.440;6.610;2023-11-21T03:58:19;7.50;99.90
16384;DHT22;8301;51.440;6.610;2023-11-21T04:00:46;7.60;99.90
16384;DHT22;8301;51.440;6.610;2023-11-21T04:03:15;7.60;99.90
16384;DHT22;8301;51.440;6.610;2023-11-21T04:05:42;7.60;99.90
16384;DHT22;8301;51.440;6.610;2023-11-21T04:08:09;7.60;99.90
16384;DHT22;8301;51.440;6.610;2023-11-21T04:10:35;7.60;99.90
16384;DHT22;8301;51.440;6.610;2023-11-21T04:13:02;7.70;99.90
16384;DHT22;8301;51.440;6.610;2023-11-21T04:15:31;7.70;99.90
16384;DHT22;8301;51.440;6.610;2023-11-21T04:18:00;7.70;99.90
16384;DHT22;8301;51.440;6.610;2023-11-21T04:20:27;7.70;99.90
16384;DHT22;8301;51.440;6.610;2023-11-21T04:22:53;7.70;99.90
16384;DHT22;8301;51.440;6.610;2023-11-21T04:25:20;7.70;99.90
16384;DHT22;8301;51.440;6.610;2023-11-21T04:27:49;7.70;99.90
16384;DHT22;8301;51.440;6.610;2023-11-21T04:30:15;7.70;99.90
16384;DHT22;8301;51.440;6.610;2023-11-21T04:32:44;7.70;99.90
16384;DHT22;8301;51.440;6.610;2023-11-21T04:35:11;7.70;99.90
16384;DHT22;8301;51.440;6.610;2023-11-21T04:37:37;7.70;99.90
16384;DHT22;8301;51.440;6.610;2023-11-21T04:40:06;7.70;99.90
16384;DHT22;8301;51.440;6.610;2023-11-21T04:42:34;7.70;99.90
16384;DHT22;8301;51.440;6.610;2023-11-21T04:45:04;7.70;99.90
16384;DHT22;8301;51.440;6.610;2023-11-21T04:47:35;7.70;99.90
16384;DHT22;8301;51.440;6.610;2023-11-21T04:50:04;7.60;99.90
16384;DHT22;8301;51.440;6.610;2023-11-21T04:52:31;7.70;99.90
16384;DHT22;8301;51.440;6.610;2023-11-21T04:54:59;7.70;99.90
16384;DHT22;8301;51.440;6.610;2023-11-21T04:57:27;7.70;99.90
16384;DHT22;8301;51.440;6.610;2023-11-21T04:59:54;7.70;99.90
16384;DHT22;8301;51.440;6.610;2023-11-21T05:02:21;7.70;99.90
16384;DHT22;8301;51.440;6.610;2023-11-21T05:05:09;7.70;99.90
16384;DHT22;8301;51.440;6.610;2023-11-21T05:07:38;7.70;99.90
16384;DHT22;8301;51.440;6.610;2023-11-21T05:10:01;7.70;99.90
16384;DHT22;8301;51.440;6.610;2023-11-21T05:12:31;7.70;99.90
16384;DHT22;8301;51.440;6.610;2023-11-21T05:15:02;7.60;99.90
16384;DHT22;8301;51.440;6.610;2023-11-21T05:17:32;7.60;99.90
16384;DHT22;8301;51.440;6.610;2023-11-21T05:20:00;7.60;99.90
16384;DHT22;8301;51.440;6.610;2023-11-21T05:22:31;7.60;99.90
16384;DHT22;8301;51.440;6.610;2023-11-21T05:24:57;7.60;99.90
16384;DHT22;8301;51.440;6.610;2023-11-21T05:27:25;7.60;99.90
16384;DHT22;8301;51.440;6.610;2023-11-21T05:29:52;7.60;99.90
16384;DHT22;8301;51.440;6.610;2023-11-21T05:32:23;7.60;99.90
16384;DHT22;8301;51.440;6.610;2023-11-21T05:34:49;7.50;99.90
16384;DHT22;8301;51.440;6.610;2023-11-21T05:37:16;7.50;99.90
16384;DHT22;8301;51.440;6.610;2023-11-21T05:39:44;7.50;99.90
16384;DHT22;8301;51.440;6.610;2023-11-21T05:42:11;7.60;99.90
16384;DHT22;8301;51.440;6.610;2023-11-21T05:44:37;7.60;99.90
16384;DHT22;8301;51.440;6.610;2023-11-21T05:47:06;7.50;99.90
16384;DHT22;8301;51.440;6.610;2023-11-21T05:49:34;7.50;99.90
16384;DHT22;8301;51.440;6.610;2023-11-21T05:52:01;7.60;99.90
16384;DHT22;8301;51.440;6.610;2023-11-21T05:54:28;7.60;99.90
16384;DHT22;8301;51.440;6.610;2023-11-21T05:56:57;7.60;99.90
16384;DHT22;8301;51.440;6.610;2023-11-21T05:59:23;7.60;99.90
16384;DHT22;8301;51.440;6.610;2023-11-21T06:01:50;7.60;99.90
16384;DHT22;8301;51.440;6.610;2023-11-21T06:04:17;7.70;99.90
16384;DHT22;8301;51.440;6.610;2023-11-21T06:06:44;7.70;99.90
16384;DHT22;8301;51.440;6.610;2023-11-21T06:09:11;7.70;99.90
16384;DHT22;8301;51.440;6.610;2023-11-21T06:11:39;7.70;99.90
16384;DHT22;8301;51.440;6.610;2023-11-21T06:14:06;7.70;99.90
16384;DHT22;8301;51.440;6.610;2023-11-21T06:16:34;7.70;99.90
16384;DHT22;8301;51.440;6.610;2023-11-21T06:19:01;7.70;99.90
16384;DHT22;8301;51.440;6.610;2023-11-21T06:21:28;7.70;99.90
16384;DHT22;8301;51.440;6.610;2023-11-21T06:23:55;7.70;99.90
16384;DHT22;8301;51.440;6.610;2023-11-21T06:26:22;7.70;99.90
16384;DHT22;8301;51.440;6.610;2023-11-21T06:28:50;7.70;99.90
16384;DHT22;8301;51.440;6.610;2023-11-21T06:31:17;7.70;99.90
16384;DHT22;8301;51.440;6.610;2023-11-21T06:33:44;7.70;99.90
16384;DHT22;8301;51.440;6.610;2023-11-21T06:36:10;7.70;99.90
16384;DHT22;8301;51.440;6.610;2023-11-21T06:38:40;7.70;99.90
16384;DHT22;8301;51.440;6.610;2023-11-21T06:41:07;7.70;99.90
16384;DHT22;8301;51.440;6.610;2023-11-21T06:43:34;7.70;99.90
16384;DHT22;8301;51.440;6.610;2023-11-21T06:46:01;7.80;99.90
16384;DHT22;8301;51.440;6.610;2023-11-21T06:48:30;7.80;99.90
16384;DHT22;8301;51.440;6.610;2023-11-21T06:51:01;7.80;99.90
16384;DHT22;8301;51.440;6.610;2023-11-21T06:53:25;7.80;99.90
16384;DHT22;8301;51.440;6.610;2023-11-21T06:55:52;7.80;99.90
16384;DHT22;8301;51.440;6.610;2023-11-21T06:58:19;7.80;99.90
16384;DHT22;8301;51.440;6.610;2023-11-21T07:00:45;7.80;99.90
16384;DHT22;8301;51.440;6.610;2023-11-21T07:03:14;7.80;99.90
16384;DHT22;8301;51.440;6.610;2023-11-21T07:05:41;7.80;99.90
16384;DHT22;8301;51.440;6.610;2023-11-21T07:08:07;7.80;99.90
16384;DHT22;8301;51.440;6.610;2023-11-21T07:10:35;7.80;99.90
16384;DHT22;8301;51.440;6.610;2023-11-21T07:13:02;7.80;99.90
16384;DHT22;8301;51.440;6.610;2023-11-21T07:15:29;7.80;99.90
16384;DHT22;8301;51.440;6.610;2023-11-21T07:17:59;7.80;99.90
16384;DHT22;8301;51.440;6.610;2023-11-21T07:20:24;7.80;99.90
16384;DHT22;8301;51.440;6.610;2023-11-21T07:22:51;7.80;99.90
16384;DHT22;8301;51.440;6.610;2023-11-21T07:25:18;7.80;99.90
16384;DHT22;8301;51.440;6.610;2023-11-21T07:27:45;7.80;99.90
16384;DHT22;8301;51.440;6.610;2023-11-21T07:30:12;7.80;99.90
16384;DHT22;8301;51.440;6.610;2023-11-21T07:32:39;7.80;99.90
16384;DHT22;8301;51.440;6.610;2023-11-21T07:35:06;7.90;99.90
16384;DHT22;8301;51.440;6.610;2023-11-21T07:37:33;7.90;99.90
16384;DHT22;8301;51.440;6.610;2023-11-21T07:40:00;7.90;99.90
16384;DHT22;8301;51.440;6.610;2023-11-21T07:42:28;7.90;99.90
16384;DHT22;8301;51.440;6.610;2023-11-21T07:44:55;7.80;99.90
16384;DHT22;8301;51.440;6.610;2023-11-21T07:47:22;7.90;99.90
16384;DHT22;8301;51.440;6.610;2023-11-21T07:49:50;8.00;99.90
16384;DHT22;8301;51.440;6.610;2023-11-21T07:52:17;8.00;99.90
16384;DHT22;8301;51.440;6.610;2023-11-21T07:54:46;8.00;99.90
16384;DHT22;8301;51.440;6.610;2023-11-21T07:57:12;7.90;99.90
16384;DHT22;8301;51.440;6.610;2023-11-21T07:59:40;8.00;99.90
16384;DHT22;8301;51.440;6.610;2023-11-21T08:02:21;8.00;99.90
16384;DHT22;8301;51.440;6.610;2023-11-21T08:04:38;7.90;99.90
16384;DHT22;8301;51.440;6.610;2023-11-21T08:07:15;8.00;99.90
16384;DHT22;8301;51.440;6.610;2023-11-21T08:09:42;7.90;99.90
16384;DHT22;8301;51.440;6.610;2023-11-21T08:12:10;7.90;99.90
16384;DHT22;8301;51.440;6.610;2023-11-21T08:14:37;7.90;99.90
16384;DHT22;8301;51.440;6.610;2023-11-21T08:17:08;7.90;99.90
16384;DHT22;8301;51.440;6.610;2023-11-21T08:19:36;7.90;99.90
16384;DHT22;8301;51.440;6.610;2023-11-21T08:22:03;7.90;99.90
16384;DHT22;8301;51.440;6.610;2023-11-21T08:24:30;8.00;99.90
16384;DHT22;8301;51.440;6.610;2023-11-21T08:26:57;8.10;99.90
16384;DHT22;8301;51.440;6.610;2023-11-21T08:29:24;8.10;99.90
16384;DHT22;8301;51.440;6.610;2023-11-21T08:31:51;8.00;99.90
16384;DHT22;8301;51.440;6.610;2023-11-21T08:34:18;8.10;99.90
16384;DHT22;8301;51.440;6.610;2023-11-21T08:36:44;8.10;99.90
16384;DHT22;8301;51.440;6.610;2023-11-21T08:39:11;8.20;99.90
16384;DHT22;8301;51.440;6.610;2023-11-21T08:41:39;8.20;99.90
16384;DHT22;8301;51.440;6.610;2023-11-21T08:44:05;8.20;99.90
16384;DHT22;8301;51.440;6.610;2023-11-21T08:46:33;8.20;99.90
16384;DHT22;8301;51.440;6.610;2023-11-21T08:49:03;8.20;99.90
16384;DHT22;8301;51.440;6.610;2023-11-21T08:51:30;8.10;99.90
16384;DHT22;8301;51.440;6.610;2023-11-21T08:53:57;8.20;99.90
16384;DHT22;8301;51.440;6.610;2023-11-21T08:56:26;8.20;99.90
16384;DHT22;8301;51.440;6.610;2023-11-21T08:58:53;8.20;99.90
16384;DHT22;8301;51.440;6.610;2023-11-21T09:01:20;8.20;99.90
16384;DHT22;8301;51.440;6.610;2023-11-21T09:03:49;8.30;99.90
16384;DHT22;8301;51.440;6.610;2023-11-21T09:06:16;8.30;99.90
16384;DHT22;8301;51.440;6.610;2023-11-21T09:08:42;8.30;99.90
16384;DHT22;8301;51.440;6.610;2023-11-21T09:11:09;8.30;99.90
16384;DHT22;8301;51.440;6.610;2023-11-21T09:13:36;8.20;99.90
16384;DHT22;8301;51.440;6.610;2023-11-21T09:16:03;8.30;99.90
16384;DHT22;8301;51.440;6.610;2023-11-21T09:18:30;8.30;99.90
16384;DHT22;8301;51.440;6.610;2023-11-21T09:20:57;8.40;99.90
16384;DHT22;8301;51.440;6.610;2023-11-21T09:23:24;8.50;99.90
16384;DHT22;8301;51.440;6.610;2023-11-21T09:25:50;8.40;99.90
16384;DHT22;8301;51.440;6.610;2023-11-21T09:28:17;8.50;99.90
16384;DHT22;8301;51.440;6.610;2023-11-21T09:30:44;8.40;99.90
16384;DHT22;8301;51.440;6.610;2023-11-21T09:33:11;8.50;99.90
16384;DHT22;8301;51.440;6.610;2023-11-21T09:35:39;8.50;99.90
16384;DHT22;8301;51.440;6.610;2023-11-21T09:38:06;8.60;99.90
16384;DHT22;8301;51.440;6.610;2023-11-21T09:40:37;8.60;99.90
16384;DHT22;8301;51.440;6.610;2023-11-21T09:43:08;8.60;99.90
16384;DHT22;8301;51.440;6.610;2023-11-21T09:45:36;8.50;99.90
16384;DHT22;8301;51.440;6.610;2023-11-21T09:48:05;8.60;99.90
16384;DHT22;8301;51.440;6.610;2023-11-21T09:50:32;8.50;99.90
16384;DHT22;8301;51.440;6.610;2023-11-21T09:55:47;8.70;99.90
16384;DHT22;8301;51.440;6.610;2023-11-21T09:58:16;8.70;99.90
16384;DHT22;8301;51.440;6.610;2023-11-21T10:00:49;8.70;99.90
16384;DHT22;8301;51.440;6.610;2023-11-21T10:03:16;8.60;99.90
16384;DHT22;8301;51.440;6.610;2023-11-21T10:05:43;8.70;99.90
16384;DHT22;8301;51.440;6.610;2023-11-21T10:08:11;8.80;99.90
16384;DHT22;8301;51.440;6.610;2023-11-21T10:10:46;8.80;99.90
16384;DHT22;8301;51.440;6.610;2023-11-21T10:13:12;8.70;99.90
16384;DHT22;8301;51.440;6.610;2023-11-21T10:15:43;8.80;99.90
16384;DHT22;8301;51.440;6.610;2023-11-21T10:18:12;9.00;99.90
16384;DHT22;8301;51.440;6.610;2023-11-21T10:20:41;9.00;99.90
16384;DHT22;8301;51.440;6.610;2023-11-21T10:23:09;9.00;99.90
16384;DHT22;8301;51.440;6.610;2023-11-21T10:25:38;8.90;99.90
16384;DHT22;8301;51.440;6.610;2023-11-21T10:28:04;9.00;99.90
16384;DHT22;8301;51.440;6.610;2023-11-21T10:30:33;9.10;99.90
16384;DHT22;8301;51.440;6.610;2023-11-21T10:33:01;9.10;99.90
16384;DHT22;8301;51.440;6.610;2023-11-21T10:35:44;9.00;99.90
16384;DHT22;8301;51.440;6.610;2023-11-21T10:38:15;9.10;99.90
16384;DHT22;8301;51.440;6.610;2023-11-21T10:40:42;9.20;99.90
16384;DHT22;8301;51.440;6.610;2023-11-21T10:43:10;9.20;99.90
16384;DHT22;8301;51.440;6.610;2023-11-21T10:45:41;9.30;99.90
16384;DHT22;8301;51.440;6.610;2023-11-21T10:48:13;9.30;99.90
16384;DHT22;8301;51.440;6.610;2023-11-21T10:50:41;9.30;99.90
16384;DHT22;8301;51.440;6.610;2023-11-21T10:53:08;9.30;99.90
16384;DHT22;8301;51.440;6.610;2023-11-21T10:55:34;9.40;99.90
16384;DHT22;8301;51.440;6.610;2023-11-21T10:58:02;9.30;99.90
16384;DHT22;8301;51.440;6.610;2023-11-21T11:00:31;9.40;99.90
16384;DHT22;8301;51.440;6.610;2023-11-21T11:02:58;9.50;99.90
16384;DHT22;8301;51.440;6.610;2023-11-21T11:05:26;9.60;99.90
16384;DHT22;8301;51.440;6.610;2023-11-21T11:07:59;9.70;99.90
16384;DHT22;8301;51.440;6.610;2023-11-21T11:10:24;9.70;99.90
16384;DHT22;8301;51.440;6.610;2023-11-21T11:12:52;9.70;99.90
16384;DHT22;8301;51.440;6.610;2023-11-21T11:15:21;9.70;99.90
16384;DHT22;8301;51.440;6.610;2023-11-21T11:17:48;9.90;99.90
16384;DHT22;8301;51.440;6.610;2023-11-21T11:20:16;9.90;99.90
16384;DHT22;8301;51.440;6.610;2023-11-21T11:22:46;9.90;99.90
16384;DHT22;8301;51.440;6.610;2023-11-21T11:27:44;9.90;99.90
16384;DHT22;8301;51.440;6.610;2023-11-21T11:30:16;10.00;99.90
16384;DHT22;8301;51.440;6.610;2023-11-21T11:35:36;9.90;99.90
16384;DHT22;8301;51.440;6.610;2023-11-21T11:37:59;9.90;99.90
16384;DHT22;8301;51.440;6.610;2023-11-21T11:40:38;9.90;99.90
16384;DHT22;8301;51.440;6.610;2023-11-21T11:43:00;10.00;99.90
16384;DHT22;8301;51.440;6.610;2023-11-21T11:45:23;9.90;99.90
16384;DHT22;8301;51.440;6.610;2023-11-21T11:47:56;9.90;99.90
16384;DHT22;8301;51.440;6.610;2023-11-21T11:50:22;9.90;99.90
16384;DHT22;8301;51.440;6.610;2023-11-21T11:52:51;9.80;99.90
16384;DHT22;8301;51.440;6.610;2023-11-21T11:55:20;9.60;99.90
16384;DHT22;8301;51.440;6.610;2023-11-21T11:57:51;9.60;99.90
16384;DHT22;8301;51.440;6.610;2023-11-21T12:00:18;9.60;99.90
16384;DHT22;8301;51.440;6.610;2023-11-21T12:02:47;9.70;99.90
16384;DHT22;8301;51.440;6.610;2023-11-21T12:05:15;9.70;99.90
16384;DHT22;8301;51.440;6.610;2023-11-21T12:07:52;9.80;99.90
16384;DHT22;8301;51.440;6.610;2023-11-21T12:10:23;9.70;99.90
16384;DHT22;8301;51.440;6.610;2023-11-21T12:12:51;9.70;99.90
16384;DHT22;8301;51.440;6.610;2023-11-21T12:15:19;9.80;99.90
16384;DHT22;8301;51.440;6.610;2023-11-21T12:17:46;9.80;99.90
16384;DHT22;8301;51.440;6.610;2023-11-21T12:20:13;9.70;99.90
16384;DHT22;8301;51.440;6.610;2023-11-21T12:22:46;9.70;99.90
16384;DHT22;8301;51.440;6.610;2023-11-21T12:25:14;9.70;99.90
16384;DHT22;8301;51.440;6.610;2023-11-21T12:27:43;9.70;99.90
16384;DHT22;8301;51.440;6.610;2023-11-21T12:30:11;9.70;99.90
16384;DHT22;8301;51.440;6.610;2023-11-21T12:32:47;9.80;99.90
16384;DHT22;8301;51.440;6.610;2023-11-21T12:35:13;9.90;99.90
16384;DHT22;8301;51.440;6.610;2023-11-21T12:37:40;10.00;99.90
16384;DHT22;8301;51.440;6.610;2023-11-21T12:40:10;9.90;99.90
16384;DHT22;8301;51.440;6.610;2023-11-21T12:42:39;10.00;99.90
16384;DHT22;8301;51.440;6.610;2023-11-21T12:45:24;9.90;99.90
16384;DHT22;8301;51.440;6.610;2023-11-21T12:50:38;9.80;99.90
16384;DHT22;8301;51.440;6.610;2023-11-21T12:53:03;9.90;99.90
16384;DHT22;8301;51.440;6.610;2023-11-21T12:55:31;9.80;99.90
16384;DHT22;8301;51.440;6.610;2023-11-21T12:58:00;9.70;99.90
16384;DHT22;8301;51.440;6.610;2023-11-21T13:00:30;9.70;99.90
16384;DHT22;8301;51.440;6.610;2023-11-21T13:02:58;9.70;99.90
16384;DHT22;8301;51.440;6.610;2023-11-21T13:05:28;9.70;99.90
16384;DHT22;8301;51.440;6.610;2023-11-21T13:07:55;9.70;99.90
16384;DHT22;8301;51.440;6.610;2023-11-21T13:10:23;9.80;99.90
16384;DHT22;8301;51.440;6.610;2023-11-21T13:12:52;9.80;99.90
16384;DHT22;8301;51.440;6.610;2023-11-21T13:15:20;9.80;99.90
16384;DHT22;8301;51.440;6.610;2023-11-21T13:17:47;9.80;99.90
16384;DHT22;8301;51.440;6.610;2023-11-21T13:20:21;9.70;99.90
16384;DHT22;8301;51.440;6.610;2023-11-21T13:22:51;9.70;99.90
16384;DHT22;8301;51.440;6.610;2023-11-21T13:25:27;9.70;99.90
16384;DHT22;8301;51.440;6.610;2023-11-21T13:27:55;9.60;99.90
16384;DHT22;8301;51.440;6.610;2023-11-21T13:30:22;9.60;99.90
16384;DHT22;8301;51.440;6.610;2023-11-21T13:32:51;9.70;99.90
16384;DHT22;8301;51.440;6.610;2023-11-21T13:35:21;9.60;99.90
16384;DHT22;8301;51.440;6.610;2023-11-21T13:37:47;9.70;99.90
16384;DHT22;8301;51.440;6.610;2023-11-21T13:40:15;9.60;99.90
16384;DHT22;8301;51.440;6.610;2023-11-21T13:42:43;9.60;99.90
16384;DHT22;8301;51.440;6.610;2023-11-21T13:45:10;9.70;99.90
16384;DHT22;8301;51.440;6.610;2023-11-21T13:47:38;9.60;99.90
16384;DHT22;8301;51.440;6.610;2023-11-21T13:50:06;9.60;99.90
16384;DHT22;8301;51.440;6.610;2023-11-21T13:52:37;9.60;99.90
16384;DHT22;8301;51.440;6.610;2023-11-21T13:55:04;9.60;99.90
16384;DHT22;8301;51.440;6.610;2023-11-21T13:57:33;9.60;99.90
16384;DHT22;8301;51.440;6.610;2023-11-21T14:00:00;9.60;99.90
16384;DHT22;8301;51.440;6.610;2023-11-21T14:02:27;9.70;99.90
16384;DHT22;8301;51.440;6.610;2023-11-21T14:04:55;9.70;99.90
16384;DHT22;8301;51.440;6.610;2023-11-21T14:07:24;9.60;99.90
16384;DHT22;8301;51.440;6.610;2023-11-21T14:09:58;9.70;99.90
16384;DHT22;8301;51.440;6.610;2023-11-21T14:12:25;9.60;99.90
16384;DHT22;8301;51.440;6.610;2023-11-21T14:14:51;9.60;99.90
16384;DHT22;8301;51.440;6.610;2023-11-21T14:17:20;9.60;99.90
16384;DHT22;8301;51.440;6.610;2023-11-21T14:19:49;9.60;99.90
16384;DHT22;8301;51.440;6.610;2023-11-21T14:22:16;9.50;99.90
16384;DHT22;8301;51.440;6.610;2023-11-21T14:24:43;9.50;99.90
16384;DHT22;8301;51.440;6.610;2023-11-21T14:27:13;9.50;99.90
16384;DHT22;8301;51.440;6.610;2023-11-21T14:29:43;9.50;99.90
16384;DHT22;8301;51.440;6.610;2023-11-21T14:32:11;9.50;99.90
16384;DHT22;8301;51.440;6.610;2023-11-21T14:34:39;9.50;99.90
16384;DHT22;8301;51.440;6.610;2023-11-21T14:37:06;9.50;99.90
16384;DHT22;8301;51.440;6.610;2023-11-21T14:39:33;9.50;99.90
16384;DHT22;8301;51.440;6.610;2023-11-21T14:42:02;9.50;99.90
16384;DHT22;8301;51.440;6.610;2023-11-21T14:44:30;9.50;99.90
16384;DHT22;8301;51.440;6.610;2023-11-21T14:46:58;9.50;99.90
16384;DHT22;8301;51.440;6.610;2023-11-21T14:49:26;9.50;99.90
16384;DHT22;8301;51.440;6.610;2023-11-21T14:51:54;9.50;99.90
16384;DHT22;8301;51.440;6.610;2023-11-21T14:54:32;9.50;99.90
16384;DHT22;8301;51.440;6.610;2023-11-21T14:57:09;9.50;99.90
16384;DHT22;8301;51.440;6.610;2023-11-21T14:59:44;9.50;99.90
16384;DHT22;8301;51.440;6.610;2023-11-21T15:02:19;9.50;99.90
16384;DHT22;8301;51.440;6.610;2023-11-21T15:04:50;9.40;99.90
16384;DHT22;8301;51.440;6.610;2023-11-21T15:07:19;9.40;99.90
16384;DHT22;8301;51.440;6.610;2023-11-21T15:09:45;9.40;99.90
16384;DHT22;8301;51.440;6.610;2023-11-21T15:12:13;9.40;99.90
16384;DHT22;8301;51.440;6.610;2023-11-21T15:14:44;9.40;99.90
16384;DHT22;8301;51.440;6.610;2023-11-21T15:17:16;9.40;99.90
16384;DHT22;8301;51.440;6.610;2023-11-21T15:19:44;9.40;99.90
16384;DHT22;8301;51.440;6.610;2023-11-21T15:22:11;9.30;99.90
16384;DHT22;8301;51.440;6.610;2023-11-21T15:24:39;9.30;99.90
16384;DHT22;8301;51.440;6.610;2023-11-21T15:27:07;9.30;99.90
16384;DHT22;8301;51.440;6.610;2023-11-21T15:29:34;9.30;99.90
16384;DHT22;8301;51.440;6.610;2023-11-21T15:32:01;9.30;99.90
16384;DHT22;8301;51.440;6.610;2023-11-21T15:34:28;9.30;99.90
16384;DHT22;8301;51.440;6.610;2023-11-21T15:36:57;9.20;99.90
16384;DHT22;8301;51.440;6.610;2023-11-21T15:39:23;9.20;99.90
16384;DHT22;8301;51.440;6.610;2023-11-21T15:41:57;9.10;99.90
16384;DHT22;8301;51.440;6.610;2023-11-21T15:44:20;9.10;99.90
16384;DHT22;8301;51.440;6.610;2023-11-21T15:46:48;9.10;99.90
16384;DHT22;8301;51.440;6.610;2023-11-21T15:49:15;9.00;99.90
16384;DHT22;8301;51.440;6.610;2023-11-21T15:51:44;9.00;99.90
16384;DHT22;8301;51.440;6.610;2023-11-21T15:54:15;9.00;99.90
16384;DHT22;8301;51.440;6.610;2023-11-21T15:56:42;8.90;99.90
16384;DHT22;8301;51.440;6.610;2023-11-21T15:59:10;8.90;99.90
16384;DHT22;8301;51.440;6.610;2023-11-21T16:01:38;8.90;99.90
16384;DHT22;8301;51.440;6.610;2023-11-21T16:04:06;8.90;99.90
16384;DHT22;8301;51.440;6.610;2023-11-21T16:06:33;8.80;99.90
16384;DHT22;8301;51.440;6.610;2023-11-21T16:09:01;8.80;99.90
16384;DHT22;8301;51.440;6.610;2023-11-21T16:11:28;8.80;99.90
16384;DHT22;8301;51.440;6.610;2023-11-21T16:13:56;8.80;99.90
16384;DHT22;8301;51.440;6.610;2023-11-21T16:16:22;8.80;99.90
16384;DHT22;8301;51.440;6.610;2023-11-21T16:18:49;8.80;99.90